createdAt,value
2023-05-10T00:00:05.857Z,9.75
2023-05-10T00:03:10.879Z,9.70
2023-05-10T00:05:58.017Z,9.66
2023-05-10T00:08:44.925Z,9.62
2023-05-10T00:11:31.644Z,9.58
2023-05-10T00:14:18.617Z,9.54
2023-05-10T00:17:04.947Z,9.49
2023-05-10T00:19:51.647Z,9.45
2023-05-10T00:22:38.759Z,9.41
2023-05-10T00:25:25.515Z,9.33
2023-05-10T00:28:15.303Z,9.31
2023-05-10T00:31:01.970Z,9.29
2023-05-10T00:33:50.038Z,9.27
2023-05-10T00:36:36.450Z,9.23
2023-05-10T00:39:23.079Z,9.20
2023-05-10T00:42:09.792Z,9.17
2023-05-10T00:44:56.647Z,9.14
2023-05-10T00:47:43.717Z,9.08
2023-05-10T00:50:31.929Z,9.04
2023-05-10T00:53:18.914Z,8.99
2023-05-10T00:56:06.590Z,8.92
2023-05-10T00:58:53.347Z,8.88
2023-05-10T01:01:39.926Z,8.81
2023-05-10T01:04:26.916Z,8.77
2023-05-10T01:07:13.775Z,8.72
2023-05-10T01:10:00.053Z,8.66
2023-05-10T01:12:48.264Z,8.57
2023-05-10T01:15:36.541Z,8.47
2023-05-10T01:18:23.738Z,8.39
2023-05-10T01:21:10.390Z,8.26
2023-05-10T01:24:16.009Z,8.17
2023-05-10T01:27:13.653Z,8.03
2023-05-10T01:30:14.714Z,7.91
2023-05-10T01:33:34.648Z,7.78
2023-05-10T01:36:33.786Z,7.68
2023-05-10T01:39:41.389Z,7.60
2023-05-10T01:42:36.924Z,7.52
2023-05-10T01:46:12.689Z,7.45
2023-05-10T01:49:01.658Z,7.35
2023-05-10T01:51:55.756Z,7.30
2023-05-10T01:54:47.743Z,7.26
2023-05-10T01:57:37.080Z,7.19
2023-05-10T02:00:25.483Z,7.13
2023-05-10T02:03:13.334Z,7.06
2023-05-10T02:06:00.493Z,7.07
2023-05-10T02:08:48.550Z,7.06
2023-05-10T02:11:36.042Z,7.04
2023-05-10T02:14:25.485Z,7.01
2023-05-10T02:17:12.936Z,6.98
2023-05-10T02:20:02.008Z,6.96
2023-05-10T02:22:54.684Z,6.93
2023-05-10T02:25:44.438Z,6.88
2023-05-10T02:28:34.035Z,6.92
2023-05-10T02:31:24.505Z,6.91
2023-05-10T02:34:12.313Z,6.89
2023-05-10T02:37:00.533Z,6.88
2023-05-10T02:39:50.076Z,6.85
2023-05-10T02:42:38.752Z,6.79
2023-05-10T02:45:30.102Z,6.80
2023-05-10T02:48:17.970Z,6.77
2023-05-10T02:51:08.083Z,6.75
2023-05-10T02:53:57.120Z,6.74
2023-05-10T02:56:51.795Z,6.72
2023-05-10T02:59:38.249Z,6.71
2023-05-10T03:02:25.023Z,6.72
2023-05-10T03:05:11.976Z,6.73
2023-05-10T03:07:58.811Z,6.73
2023-05-10T03:10:59.526Z,6.67
2023-05-10T03:13:55.367Z,6.69
2023-05-10T03:16:47.839Z,6.80
2023-05-10T03:19:45.608Z,6.83
2023-05-10T03:22:37.765Z,6.88
2023-05-10T03:25:25.309Z,6.94
2023-05-10T03:28:13.226Z,6.99
2023-05-10T03:31:00.697Z,7.02
2023-05-10T03:33:51.546Z,7.06
2023-05-10T03:36:42.372Z,7.10
2023-05-10T03:39:29.712Z,7.17
2023-05-10T03:42:18.909Z,7.22
2023-05-10T03:45:05.882Z,7.20
2023-05-10T03:47:52.298Z,7.32
2023-05-10T03:50:38.897Z,7.31
2023-05-10T03:53:25.784Z,7.42
2023-05-10T03:56:12.428Z,7.50
2023-05-10T03:58:59.137Z,7.57
2023-05-10T04:01:46.009Z,7.66
2023-05-10T04:04:33.118Z,7.76
2023-05-10T04:07:19.582Z,7.85
2023-05-10T04:10:06.897Z,7.94
2023-05-10T04:12:53.366Z,8.02
2023-05-10T04:15:39.992Z,8.10
2023-05-10T04:18:26.768Z,8.20
2023-05-10T04:21:14.584Z,8.27
2023-05-10T04:24:01.155Z,8.37
2023-05-10T04:26:47.671Z,8.45
2023-05-10T04:29:34.821Z,8.56
2023-05-10T04:32:21.480Z,8.66
2023-05-10T04:35:08.592Z,8.77
2023-05-10T04:37:55.630Z,8.87
2023-05-10T04:40:42.463Z,8.97
2023-05-10T04:43:28.796Z,9.08
2023-05-10T04:46:15.279Z,9.18
2023-05-10T04:49:02.277Z,9.29
2023-05-10T04:51:49.015Z,9.39
2023-05-10T04:54:35.790Z,9.50
2023-05-10T04:57:22.395Z,9.61
2023-05-10T05:00:09.608Z,9.75
2023-05-10T05:02:56.357Z,9.86
2023-05-10T05:05:42.988Z,9.99
2023-05-10T05:08:29.244Z,10.08
2023-05-10T05:11:15.870Z,10.23
2023-05-10T05:14:02.621Z,10.37
2023-05-10T05:16:49.075Z,10.51
2023-05-10T05:19:35.684Z,10.66
2023-05-10T05:22:29.072Z,10.80
2023-05-10T05:25:16.207Z,10.98
2023-05-10T05:28:02.671Z,11.12
2023-05-10T05:30:49.332Z,11.26
2023-05-10T05:33:35.931Z,11.44
2023-05-10T05:36:22.323Z,11.59
2023-05-10T05:39:08.799Z,11.75
2023-05-10T05:41:55.775Z,11.88
2023-05-10T05:44:42.254Z,12.07
2023-05-10T05:47:28.838Z,12.26
2023-05-10T05:50:15.605Z,12.45
2023-05-10T05:53:01.988Z,12.62
2023-05-10T05:55:55.729Z,12.78
2023-05-10T05:58:42.485Z,12.88
2023-05-10T06:01:29.029Z,13.05
2023-05-10T06:04:15.877Z,13.16
2023-05-10T06:07:02.144Z,13.33
2023-05-10T06:09:48.616Z,13.46
2023-05-10T06:12:35.641Z,13.61
2023-05-10T06:15:22.666Z,13.76
2023-05-10T06:18:09.023Z,13.88
2023-05-10T06:20:55.491Z,14.03
2023-05-10T06:23:41.846Z,14.15
2023-05-10T06:26:28.732Z,14.28
2023-05-10T06:29:16.285Z,14.42
2023-05-10T06:32:03.385Z,14.60
2023-05-10T06:34:49.932Z,14.72
2023-05-10T06:37:36.551Z,14.86
2023-05-10T06:40:23.121Z,14.98
2023-05-10T06:43:11.043Z,15.08
2023-05-10T06:45:58.129Z,15.19
2023-05-10T06:48:44.551Z,15.35
2023-05-10T06:51:31.697Z,15.48
2023-05-10T06:54:18.903Z,15.56
2023-05-10T06:57:10.765Z,15.65
2023-05-10T07:00:05.754Z,15.78
2023-05-10T07:02:53.092Z,15.91
2023-05-10T07:05:39.813Z,16.03
2023-05-10T07:08:26.518Z,16.18
2023-05-10T07:11:13.131Z,16.26
2023-05-10T07:13:59.250Z,16.37
2023-05-10T07:16:46.034Z,16.55
2023-05-10T07:19:33.705Z,16.70
2023-05-10T07:22:20.255Z,16.79
2023-05-10T07:25:07.392Z,16.88
2023-05-10T07:27:54.252Z,17.03
2023-05-10T07:30:40.753Z,17.19
2023-05-10T07:33:27.425Z,17.27
2023-05-10T07:36:13.709Z,17.33
2023-05-10T07:38:59.950Z,17.36
2023-05-10T07:41:46.995Z,17.41
2023-05-10T07:44:33.809Z,17.54
2023-05-10T07:47:20.339Z,17.64
2023-05-10T07:50:08.224Z,17.64
2023-05-10T07:52:54.715Z,17.78
2023-05-10T07:55:41.504Z,17.88
2023-05-10T07:58:27.975Z,17.98
2023-05-10T08:01:14.663Z,18.06
2023-05-10T08:04:01.882Z,18.10
2023-05-10T08:06:48.310Z,18.12
2023-05-10T08:09:35.177Z,18.15
2023-05-10T08:12:21.355Z,18.19
2023-05-10T08:15:09.128Z,18.36
2023-05-10T08:17:56.201Z,18.46
2023-05-10T08:20:42.780Z,18.62
2023-05-10T08:23:29.368Z,18.71
2023-05-10T08:26:16.297Z,18.69
2023-05-10T08:29:03.352Z,18.68
2023-05-10T08:31:50.124Z,18.69
2023-05-10T08:34:36.956Z,18.79
2023-05-10T08:37:24.634Z,18.97
2023-05-10T08:40:12.628Z,19.04
2023-05-10T08:43:12.036Z,19.08
2023-05-10T08:46:04.195Z,19.16
2023-05-10T08:48:52.776Z,19.25
2023-05-10T08:51:45.914Z,19.30
2023-05-10T08:54:34.266Z,19.36
2023-05-10T08:57:21.395Z,19.35
2023-05-10T09:00:09.278Z,19.34
2023-05-10T09:02:56.156Z,19.35
2023-05-10T09:05:43.364Z,19.39
2023-05-10T09:08:31.741Z,19.48
2023-05-10T09:11:18.784Z,19.64
2023-05-10T09:14:05.330Z,19.78
2023-05-10T09:16:52.030Z,19.76
2023-05-10T09:19:38.897Z,19.73
2023-05-10T09:22:25.979Z,19.79
2023-05-10T09:25:15.025Z,19.96
2023-05-10T09:28:01.575Z,20.10
2023-05-10T09:30:54.565Z,20.18
2023-05-10T09:33:49.584Z,20.26
2023-05-10T09:36:35.765Z,20.31
2023-05-10T09:39:31.514Z,20.41
2023-05-10T09:42:19.651Z,20.43
2023-05-10T09:45:07.771Z,20.46
2023-05-10T09:47:54.673Z,20.43
2023-05-10T09:50:41.349Z,20.35
2023-05-10T09:53:27.642Z,20.43
2023-05-10T09:56:14.068Z,20.67
2023-05-10T09:59:04.158Z,20.69
2023-05-10T10:01:52.293Z,20.59
2023-05-10T10:04:42.810Z,20.58
2023-05-10T10:07:30.406Z,20.64
2023-05-10T10:10:16.966Z,20.66
2023-05-10T10:13:05.930Z,20.71
2023-05-10T10:15:53.661Z,20.73
2023-05-10T10:18:40.458Z,20.65
2023-05-10T10:21:27.582Z,20.66
2023-05-10T10:24:13.917Z,20.68
2023-05-10T10:27:21.833Z,20.73
2023-05-10T10:30:26.107Z,20.86
2023-05-10T10:33:49.681Z,20.81
2023-05-10T10:36:48.699Z,20.78
2023-05-10T10:39:37.757Z,20.78
2023-05-10T10:42:46.988Z,20.92
2023-05-10T10:45:33.590Z,20.94
2023-05-10T10:48:24.208Z,20.96
2023-05-10T10:51:12.759Z,21.01
2023-05-10T10:54:10.371Z,21.09
2023-05-10T10:57:15.957Z,21.07
2023-05-10T11:00:21.842Z,21.05
2023-05-10T11:03:12.871Z,21.04
2023-05-10T11:06:00.995Z,21.03
2023-05-10T11:08:48.823Z,21.01
2023-05-10T11:11:36.946Z,21.10
2023-05-10T11:14:23.787Z,21.10
2023-05-10T11:17:30.715Z,21.11
2023-05-10T11:20:23.910Z,21.15
2023-05-10T11:23:16.672Z,21.14
2023-05-10T11:26:03.331Z,21.10
2023-05-10T11:28:50.026Z,21.03
2023-05-10T11:31:44.900Z,20.99
2023-05-10T11:34:36.008Z,21.00
2023-05-10T11:37:22.326Z,21.05
2023-05-10T11:40:10.769Z,21.17
2023-05-10T11:42:57.480Z,21.37
2023-05-10T11:45:43.792Z,21.50
2023-05-10T11:48:31.021Z,21.53
2023-05-10T11:51:21.368Z,21.40
2023-05-10T11:54:10.515Z,21.41
2023-05-10T11:56:56.724Z,21.43
2023-05-10T11:59:43.355Z,21.50
2023-05-10T12:02:30.401Z,21.64
2023-05-10T12:05:17.706Z,21.82
2023-05-10T12:08:21.230Z,21.93
2023-05-10T12:11:09.688Z,22.39
2023-05-10T12:13:57.719Z,23.45
2023-05-10T12:16:44.654Z,24.30
2023-05-10T12:19:39.563Z,24.97
2023-05-10T12:22:26.032Z,25.54
2023-05-10T12:25:12.941Z,26.11
2023-05-10T12:31:07.535Z,27.08
2023-05-10T12:33:54.305Z,27.63
2023-05-10T12:36:40.692Z,28.09
2023-05-10T12:39:38.033Z,28.41
2023-05-10T12:42:26.257Z,28.68
2023-05-10T12:45:13.062Z,29.12
2023-05-10T12:47:59.699Z,29.69
2023-05-10T12:50:47.096Z,30.06
2023-05-10T12:53:33.338Z,30.35
2023-05-10T12:56:20.001Z,30.45
2023-05-10T12:59:06.481Z,30.64
2023-05-10T13:01:52.997Z,31.00
2023-05-10T13:04:40.883Z,31.30
2023-05-10T13:07:27.559Z,31.64
2023-05-10T13:10:14.506Z,31.90
2023-05-10T13:13:01.140Z,32.30
2023-05-10T13:15:47.469Z,32.80
2023-05-10T13:18:34.306Z,33.17
2023-05-10T13:21:20.797Z,33.33
2023-05-10T13:24:08.479Z,33.50
2023-05-10T13:26:54.797Z,33.82
2023-05-10T13:29:42.540Z,33.85
2023-05-10T13:32:31.267Z,34.05
2023-05-10T13:35:17.503Z,34.38
2023-05-10T13:38:04.119Z,34.85
2023-05-10T13:40:53.721Z,35.18
2023-05-10T13:43:40.938Z,35.37
2023-05-10T13:46:27.260Z,35.56
2023-05-10T13:49:13.537Z,36.06
2023-05-10T13:52:00.639Z,36.43
2023-05-10T13:54:47.313Z,36.57
2023-05-10T13:57:35.510Z,36.69
2023-05-10T14:00:22.126Z,36.73
2023-05-10T14:03:12.353Z,36.69
2023-05-10T14:05:59.144Z,36.78
2023-05-10T14:08:45.814Z,36.95
2023-05-10T14:11:32.404Z,36.99
2023-05-10T14:14:18.612Z,36.85
2023-05-10T14:17:05.280Z,36.66
2023-05-10T14:19:51.794Z,36.99
2023-05-10T14:22:38.198Z,37.12
2023-05-10T14:25:24.847Z,37.13
2023-05-10T14:28:13.073Z,37.29
2023-05-10T14:30:59.986Z,37.57
2023-05-10T14:33:46.968Z,37.87
2023-05-10T14:36:33.360Z,38.15
2023-05-10T14:39:19.784Z,38.59
2023-05-10T14:42:06.445Z,39.15
2023-05-10T14:44:52.787Z,39.35
2023-05-10T14:47:39.205Z,39.04
2023-05-10T14:53:19.004Z,38.84
2023-05-10T14:56:05.873Z,38.84
2023-05-10T14:58:52.716Z,38.87
2023-05-10T15:01:42.438Z,38.97
2023-05-10T15:04:29.553Z,39.28
2023-05-10T15:07:17.300Z,39.52
2023-05-10T15:10:04.135Z,39.72
2023-05-10T15:12:51.404Z,39.54
2023-05-10T15:15:38.158Z,38.46
2023-05-10T15:18:24.923Z,36.64
2023-05-10T15:21:12.836Z,35.22
2023-05-10T15:23:59.360Z,33.26
2023-05-10T15:26:45.962Z,31.78
2023-05-10T15:29:32.548Z,30.43
2023-05-10T15:32:19.296Z,29.14
2023-05-10T15:35:07.349Z,28.16
2023-05-10T15:37:53.841Z,27.74
2023-05-10T15:40:40.714Z,27.35
2023-05-10T15:43:27.248Z,26.60
2023-05-10T15:46:13.329Z,25.84
2023-05-10T15:49:00.337Z,25.27
2023-05-10T15:51:46.696Z,25.00
2023-05-10T15:54:33.442Z,24.57
2023-05-10T15:57:19.940Z,24.60
2023-05-10T16:00:08.468Z,26.17
2023-05-10T16:02:58.719Z,26.11
2023-05-10T16:05:44.988Z,25.79
2023-05-10T16:08:33.456Z,25.59
2023-05-10T16:11:19.644Z,27.17
2023-05-10T16:14:07.244Z,29.52
2023-05-10T16:16:53.850Z,31.40
2023-05-10T16:19:41.257Z,32.71
2023-05-10T16:22:28.814Z,33.63
2023-05-10T16:25:15.534Z,34.39
2023-05-10T16:28:02.540Z,34.84
2023-05-10T16:30:49.402Z,35.24
2023-05-10T16:33:36.978Z,35.59
2023-05-10T16:36:23.410Z,36.10
2023-05-10T16:39:10.259Z,36.07
2023-05-10T16:41:56.550Z,36.07
2023-05-10T16:44:42.971Z,36.06
2023-05-10T16:47:29.489Z,35.80
2023-05-10T16:50:15.935Z,35.66
2023-05-10T16:53:03.220Z,35.70
2023-05-10T16:55:49.886Z,35.43
2023-05-10T16:58:36.221Z,34.82
2023-05-10T17:01:24.961Z,33.63
2023-05-10T17:04:14.366Z,31.90
2023-05-10T17:07:01.108Z,30.88
2023-05-10T17:09:47.613Z,31.53
2023-05-10T17:12:34.247Z,31.99
2023-05-10T17:15:21.060Z,32.30
2023-05-10T17:18:08.142Z,32.65
2023-05-10T17:20:55.001Z,32.71
2023-05-10T17:23:41.842Z,32.56
2023-05-10T17:26:30.104Z,32.66
2023-05-10T17:29:16.821Z,32.51
2023-05-10T17:32:03.375Z,32.11
2023-05-10T17:34:49.783Z,31.62
2023-05-10T17:37:36.132Z,30.50
2023-05-10T17:40:22.556Z,28.55
2023-05-10T17:43:09.217Z,26.72
2023-05-10T17:45:55.418Z,25.37
2023-05-10T17:48:42.185Z,24.26
2023-05-10T17:51:29.003Z,23.24
2023-05-10T17:54:15.739Z,22.42
2023-05-10T17:57:03.710Z,21.77
2023-05-10T17:59:50.110Z,21.24
2023-05-10T18:02:37.037Z,20.73
2023-05-10T18:05:24.041Z,20.29
2023-05-10T18:08:10.921Z,19.87
2023-05-10T18:10:57.586Z,19.60
2023-05-10T18:13:43.988Z,19.31
2023-05-10T18:16:30.525Z,19.04
2023-05-10T18:19:17.280Z,18.79
2023-05-10T18:22:03.820Z,18.58
2023-05-10T18:24:50.165Z,18.35
2023-05-10T18:27:36.815Z,18.16
2023-05-10T18:30:23.685Z,18.01
2023-05-10T18:33:11.813Z,17.84
2023-05-10T18:35:58.461Z,17.68
2023-05-10T18:38:45.581Z,17.52
2023-05-10T18:41:32.134Z,17.40
2023-05-10T18:44:19.224Z,17.28
2023-05-10T18:47:05.673Z,17.13
2023-05-10T18:49:52.895Z,17.03
2023-05-10T18:52:39.525Z,16.93
2023-05-10T18:55:26.115Z,16.82
2023-05-10T18:58:12.744Z,16.72
2023-05-10T19:00:59.323Z,16.61
2023-05-10T19:03:45.774Z,16.49
2023-05-10T19:06:33.856Z,16.38
2023-05-10T19:09:21.089Z,16.28
2023-05-10T19:12:07.864Z,16.20
2023-05-10T19:14:54.305Z,16.13
2023-05-10T19:17:43.220Z,16.05
2023-05-10T19:20:30.499Z,15.97
2023-05-10T19:23:17.182Z,15.89
2023-05-10T19:26:05.104Z,15.81
2023-05-10T19:28:52.620Z,15.75
2023-05-10T19:31:40.154Z,15.70
2023-05-10T19:34:28.862Z,15.64
2023-05-10T19:37:15.349Z,15.58
2023-05-10T19:40:01.783Z,15.51
2023-05-10T19:42:48.729Z,15.45
2023-05-10T19:45:35.599Z,15.36
2023-05-10T19:48:21.819Z,15.28
2023-05-10T19:51:10.287Z,15.21
2023-05-10T19:53:58.287Z,15.15
2023-05-10T19:56:45.067Z,15.10
2023-05-10T19:59:31.764Z,15.05
2023-05-10T20:02:18.355Z,15.01
2023-05-10T20:05:05.211Z,14.94
2023-05-10T20:07:51.689Z,14.88
2023-05-10T20:10:37.884Z,14.84
2023-05-10T20:13:25.155Z,14.79
2023-05-10T20:16:12.270Z,14.75
2023-05-10T20:18:59.193Z,14.68
2023-05-10T20:21:45.973Z,14.61
2023-05-10T20:24:32.691Z,14.55
2023-05-10T20:27:21.133Z,14.46
2023-05-10T20:30:08.514Z,14.42
2023-05-10T20:32:55.183Z,14.36
2023-05-10T20:35:42.234Z,14.30
2023-05-10T20:38:29.042Z,14.23
2023-05-10T20:41:15.468Z,14.16
2023-05-10T20:44:02.172Z,14.11
2023-05-10T20:46:49.907Z,14.07
2023-05-10T20:49:37.954Z,14.02
2023-05-10T20:52:24.719Z,13.97
2023-05-10T20:55:11.432Z,13.91
2023-05-10T20:57:57.985Z,13.86
2023-05-10T21:00:44.899Z,13.81
2023-05-10T21:03:31.160Z,13.75
2023-05-10T21:06:17.676Z,13.69
2023-05-10T21:09:04.393Z,13.64
2023-05-10T21:11:51.203Z,13.60
2023-05-10T21:14:37.861Z,13.56
2023-05-10T21:17:24.348Z,13.54
2023-05-10T21:20:12.076Z,13.50
2023-05-10T21:22:58.416Z,13.47
2023-05-10T21:25:44.953Z,13.43
2023-05-10T21:28:31.776Z,13.40
2023-05-10T21:31:18.827Z,13.36
2023-05-10T21:34:05.756Z,13.34
2023-05-10T21:36:52.562Z,13.33
2023-05-10T21:39:39.274Z,13.33
2023-05-10T21:42:25.588Z,13.33
2023-05-10T21:45:12.176Z,13.31
2023-05-10T21:48:01.810Z,13.28
2023-05-10T21:50:48.620Z,13.25
2023-05-10T21:53:37.692Z,13.22
2023-05-10T21:56:24.527Z,13.20
2023-05-10T21:59:11.328Z,13.19
2023-05-10T22:01:57.881Z,13.16
2023-05-10T22:04:44.330Z,13.12
2023-05-10T22:07:31.775Z,13.03
2023-05-10T22:10:18.322Z,13.05
2023-05-10T22:13:05.210Z,13.01
2023-05-10T22:15:51.912Z,12.99
2023-05-10T22:18:38.282Z,12.91
2023-05-10T22:21:25.035Z,12.92
2023-05-10T22:24:11.461Z,12.89
2023-05-10T22:26:57.698Z,12.85
2023-05-10T22:29:44.091Z,12.82
2023-05-10T22:32:31.726Z,12.77
2023-05-10T22:35:18.197Z,12.73
2023-05-10T22:38:05.008Z,12.71
2023-05-10T22:40:51.934Z,12.69
2023-05-10T22:43:38.002Z,12.65
2023-05-10T22:46:24.958Z,12.62
2023-05-10T22:49:11.496Z,12.57
2023-05-10T22:51:57.771Z,12.54
2023-05-10T22:54:44.359Z,12.50
2023-05-10T22:57:31.110Z,12.46
2023-05-10T23:00:17.811Z,12.41
2023-05-10T23:03:05.734Z,12.37
2023-05-10T23:05:52.670Z,12.33
2023-05-10T23:08:39.317Z,12.29
2023-05-10T23:11:25.815Z,12.25
2023-05-10T23:14:12.279Z,12.24
2023-05-10T23:16:58.565Z,12.18
2023-05-10T23:19:45.102Z,12.22
2023-05-10T23:22:31.932Z,12.19
2023-05-10T23:25:18.477Z,12.17
2023-05-10T23:28:05.051Z,12.13
2023-05-10T23:30:58.808Z,12.10
2023-05-10T23:33:45.244Z,12.05
2023-05-10T23:36:33.370Z,12.03
2023-05-10T23:39:20.018Z,12.00
2023-05-10T23:42:07.251Z,11.95
2023-05-10T23:44:53.878Z,11.93
2023-05-10T23:47:40.513Z,11.89
2023-05-10T23:50:27.211Z,11.84
2023-05-10T23:53:13.821Z,11.79
2023-05-10T23:56:00.179Z,11.76
2023-05-10T23:58:46.512Z,11.73
